Time;durP1;ratioP1;P1;durP2;ratioP2;P2;SDS_P1;SDS_P2;PMS_P1;PMS_P2;Temp;Humidity;BMP_temperature;BMP_pressure;BME280_temperature;BME280_humidity;BME280_pressure;Samples;Min_cycle;Max_cycle;Signal;HPM_P1;HPM_P2
2024/02/06 00:00:28;;;;;;;13.88;5.10;;;;;;;;;;5029915;28;20026;-80
2024/02/06 00:02:53;;;;;;;8.68;3.63;;;;;;;;;;5029379;28;20025;-79
2024/02/06 00:05:19;;;;;;;10.10;5.35;;;;;;;;;;5022798;28;20093;-80
2024/02/06 00:07:44;;;;;;;10.52;5.88;;;;;;;;;;5028875;28;20025;-81
2024/02/06 00:10:10;;;;;;;13.05;6.03;;;;;;;;;;5032102;28;20031;-81
2024/02/06 00:12:35;;;;;;;9.48;5.03;;;;;;;;;;5030057;28;20466;-79
2024/02/06 00:15:00;;;;;;;7.55;3.67;;;;;;;;;;5030348;28;20044;-79
2024/02/06 00:17:26;;;;;;;10.63;5.30;;;;;;;;;;5031338;28;20544;-80
2024/02/06 00:19:51;;;;;;;10.02;4.80;;;;;;;;;;5031294;28;20057;-79
2024/02/06 00:22:16;;;;;;;14.30;5.10;;;;;;;;;;5031771;28;20025;-78
2024/02/06 00:24:42;;;;;;;11.43;5.47;;;;;;;;;;5024690;28;20116;-80
2024/02/06 00:27:08;;;;;;;12.05;4.47;;;;;;;;;;5030193;28;20021;-78
2024/02/06 00:29:33;;;;;;;9.23;4.60;;;;;;;;;;5043330;28;20037;-79
2024/02/06 00:31:59;;;;;;;11.90;5.05;;;;;;;;;;5027705;28;20029;-78
2024/02/06 00:34:24;;;;;;;6.55;3.97;;;;;;;;;;5032411;28;20124;-79
2024/02/06 00:36:49;;;;;;;14.90;5.07;;;;;;;;;;5031775;28;20032;-80
2024/02/06 00:39:16;;;;;;;8.10;4.25;;;;;;;;;;5030359;28;20021;-80
2024/02/06 00:41:43;;;;;;;7.20;3.78;;;;;;;;;;5040940;28;20017;-79
2024/02/06 00:44:08;;;;;;;11.20;4.32;;;;;;;;;;5026363;28;20078;-80
2024/02/06 00:46:33;;;;;;;8.90;4.20;;;;;;;;;;5032112;28;20454;-80
2024/02/06 00:48:59;;;;;;;12.45;4.25;;;;;;;;;;5024640;28;20528;-80
2024/02/06 00:51:24;;;;;;;6.78;3.58;;;;;;;;;;5031229;28;20437;-81
2024/02/06 00:53:49;;;;;;;3.60;2.40;;;;;;;;;;5046126;28;20454;-79
2024/02/06 00:56:15;;;;;;;6.15;3.00;;;;;;;;;;5030415;28;20031;-81
2024/02/06 00:58:41;;;;;;;8.40;3.70;;;;;;;;;;5032659;28;20028;-79
2024/02/06 01:01:06;;;;;;;8.55;2.78;;;;;;;;;;5030362;28;20539;-79
2024/02/06 01:03:32;;;;;;;8.00;2.55;;;;;;;;;;5031247;28;20524;-81
2024/02/06 01:05:57;;;;;;;6.43;2.85;;;;;;;;;;5031919;28;20094;-81
2024/02/06 01:08:23;;;;;;;4.13;2.90;;;;;;;;;;5034706;28;20044;-78
2024/02/06 01:10:48;;;;;;;4.85;2.67;;;;;;;;;;5037925;28;20208;-82
2024/02/06 01:13:13;;;;;;;4.70;2.33;;;;;;;;;;5037504;28;20350;-79
2024/02/06 01:15:39;;;;;;;3.58;2.08;;;;;;;;;;5046108;28;20029;-82
2024/02/06 01:18:04;;;;;;;6.53;2.92;;;;;;;;;;5037632;28;20033;-80
2024/02/06 01:20:30;;;;;;;11.55;3.38;;;;;;;;;;5036680;28;20018;-80
2024/02/06 01:22:55;;;;;;;9.05;2.58;;;;;;;;;;5037417;28;20021;-81
2024/02/06 01:25:21;;;;;;;5.32;3.03;;;;;;;;;;5034931;28;20026;-81
2024/02/06 01:27:46;;;;;;;6.60;2.63;;;;;;;;;;5021912;28;20108;-80
2024/02/06 01:30:12;;;;;;;3.55;2.30;;;;;;;;;;5027658;28;20168;-80
2024/02/06 01:32:37;;;;;;;4.68;2.10;;;;;;;;;;5026965;28;20040;-79
2024/02/06 01:35:03;;;;;;;3.78;2.58;;;;;;;;;;5029850;28;20034;-80
2024/02/06 01:37:29;;;;;;;4.80;2.40;;;;;;;;;;5027570;28;20014;-80
2024/02/06 01:39:54;;;;;;;5.38;2.70;;;;;;;;;;5027264;28;20032;-80
2024/02/06 01:42:19;;;;;;;4.78;1.92;;;;;;;;;;5030281;28;20017;-79
2024/02/06 01:44:45;;;;;;;9.20;2.50;;;;;;;;;;5028038;28;20021;-81
2024/02/06 01:47:11;;;;;;;4.55;2.28;;;;;;;;;;5030299;28;20031;-80
2024/02/06 01:49:37;;;;;;;7.28;2.42;;;;;;;;;;5010555;28;20033;-79
2024/02/06 01:52:04;;;;;;;3.08;1.52;;;;;;;;;;5033571;28;20025;-79
2024/02/06 01:54:29;;;;;;;4.55;1.60;;;;;;;;;;5026754;28;20025;-80
2024/02/06 01:56:55;;;;;;;4.80;2.00;;;;;;;;;;5032477;28;20373;-81
2024/02/06 01:59:21;;;;;;;1.63;1.17;;;;;;;;;;5028581;28;20022;-79
2024/02/06 02:01:47;;;;;;;3.60;1.63;;;;;;;;;;5027876;28;20017;-79
2024/02/06 02:04:13;;;;;;;5.15;1.85;;;;;;;;;;5028155;28;20568;-79
2024/02/06 02:06:39;;;;;;;2.15;1.45;;;;;;;;;;5027756;28;20037;-78
2024/02/06 02:09:05;;;;;;;1.75;1.50;;;;;;;;;;5030744;28;20397;-79
2024/02/06 02:11:30;;;;;;;3.60;1.70;;;;;;;;;;5027492;28;20079;-78
2024/02/06 02:13:56;;;;;;;2.47;1.95;;;;;;;;;;5027001;28;20025;-78
2024/02/06 02:16:23;;;;;;;2.22;1.58;;;;;;;;;;5026471;28;20079;-80
2024/02/06 02:18:48;;;;;;;5.20;2.15;;;;;;;;;;5029419;28;20036;-80
2024/02/06 02:21:16;;;;;;;1.40;1.02;;;;;;;;;;5028847;28;20033;-78
2024/02/06 02:23:44;;;;;;;2.78;1.60;;;;;;;;;;5029411;28;20572;-79
2024/02/06 02:26:11;;;;;;;1.95;1.63;;;;;;;;;;5027729;28;20028;-77
2024/02/06 02:28:37;;;;;;;4.90;2.00;;;;;;;;;;5026317;28;20067;-79
2024/02/06 02:31:05;;;;;;;2.53;1.38;;;;;;;;;;5027321;28;20053;-78
2024/02/06 02:33:31;;;;;;;2.22;1.45;;;;;;;;;;5031048;28;20037;-78
2024/02/06 02:35:56;;;;;;;4.68;1.65;;;;;;;;;;5029337;28;20032;-79
2024/02/06 02:38:23;;;;;;;3.45;1.50;;;;;;;;;;5028659;28;20025;-78
2024/02/06 02:40:48;;;;;;;2.40;1.48;;;;;;;;;;5027875;28;20060;-78
2024/02/06 02:43:15;;;;;;;3.90;1.45;;;;;;;;;;5028950;28;20032;-80
2024/02/06 02:45:41;;;;;;;2.15;1.52;;;;;;;;;;5026030;28;20060;-80
2024/02/06 02:48:07;;;;;;;3.67;1.52;;;;;;;;;;5030306;28;20670;-82
2024/02/06 02:50:32;;;;;;;5.35;1.42;;;;;;;;;;5026874;28;20537;-80
2024/02/06 02:52:57;;;;;;;5.40;1.40;;;;;;;;;;5026407;28;20449;-79
2024/02/06 02:55:22;;;;;;;3.50;1.40;;;;;;;;;;5025580;28;21037;-80
2024/02/06 02:57:48;;;;;;;2.13;1.23;;;;;;;;;;5027427;28;20083;-80
2024/02/06 03:00:14;;;;;;;2.35;1.35;;;;;;;;;;5025240;28;20087;-82
2024/02/06 03:02:39;;;;;;;4.00;1.38;;;;;;;;;;5021657;28;20029;-81
2024/02/06 03:05:05;;;;;;;3.00;1.10;;;;;;;;;;5026259;28;20497;-79
2024/02/06 03:07:30;;;;;;;4.05;1.20;;;;;;;;;;5026886;28;20565;-80
2024/02/06 03:09:56;;;;;;;2.30;1.33;;;;;;;;;;5022437;28;20109;-80
2024/02/06 03:12:21;;;;;;;2.90;1.08;;;;;;;;;;5024993;28;20025;-81
2024/02/06 03:14:47;;;;;;;3.83;1.85;;;;;;;;;;5026361;28;20474;-80
2024/02/06 03:17:12;;;;;;;1.88;1.20;;;;;;;;;;5026914;28;20474;-79
2024/02/06 03:19:39;;;;;;;1.92;1.00;;;;;;;;;;5025609;28;20029;-80
2024/02/06 03:22:05;;;;;;;1.92;1.30;;;;;;;;;;5026310;28;20028;-79
2024/02/06 03:24:30;;;;;;;5.38;1.48;;;;;;;;;;5026803;28;20089;-80
2024/02/06 03:26:55;;;;;;;4.15;1.33;;;;;;;;;;5027070;28;20030;-79
2024/02/06 03:29:21;;;;;;;2.50;1.15;;;;;;;;;;5032136;28;20049;-79
2024/02/06 03:31:47;;;;;;;2.45;1.35;;;;;;;;;;5027128;28;20026;-80
2024/02/06 03:34:13;;;;;;;2.97;1.38;;;;;;;;;;5027827;28;20028;-79
2024/02/06 03:36:42;;;;;;;4.05;1.60;;;;;;;;;;5033679;28;20378;-80
2024/02/06 03:39:09;;;;;;;3.40;1.40;;;;;;;;;;5028540;28;20021;-78
2024/02/06 03:41:35;;;;;;;2.35;1.15;;;;;;;;;;5027137;28;20757;-80
2024/02/06 03:44:00;;;;;;;1.75;1.00;;;;;;;;;;5029457;28;20053;-79
2024/02/06 03:46:25;;;;;;;2.40;1.88;;;;;;;;;;5026700;28;20025;-81
2024/02/06 03:48:51;;;;;;;3.05;1.40;;;;;;;;;;5030090;28;20041;-78
2024/02/06 03:51:17;;;;;;;3.03;1.92;;;;;;;;;;5027070;28;20501;-79
2024/02/06 03:53:42;;;;;;;5.00;1.58;;;;;;;;;;5027201;28;20599;-79
2024/02/06 03:56:08;;;;;;;3.97;1.52;;;;;;;;;;5026137;28;20024;-80
2024/02/06 03:58:33;;;;;;;2.95;1.30;;;;;;;;;;5024041;28;20026;-79
2024/02/06 04:00:59;;;;;;;2.92;1.80;;;;;;;;;;5027058;28;20021;-80
2024/02/06 04:03:25;;;;;;;3.63;1.10;;;;;;;;;;5026962;28;20029;-82
2024/02/06 04:05:50;;;;;;;5.45;2.35;;;;;;;;;;5026837;28;20025;-81
2024/02/06 04:08:16;;;;;;;3.58;1.50;;;;;;;;;;5028566;28;20033;-81
2024/02/06 04:10:42;;;;;;;4.32;1.40;;;;;;;;;;5028725;28;20506;-80
2024/02/06 04:13:08;;;;;;;3.42;1.80;;;;;;;;;;5026048;28;20021;-80
2024/02/06 04:15:34;;;;;;;3.22;1.70;;;;;;;;;;5028180;28;20087;-78
2024/02/06 04:17:59;;;;;;;1.92;1.48;;;;;;;;;;5028029;28;20025;-80
2024/02/06 04:20:25;;;;;;;2.85;1.10;;;;;;;;;;5021087;28;20025;-78
2024/02/06 04:22:51;;;;;;;1.83;1.20;;;;;;;;;;5030067;28;20043;-79
2024/02/06 04:25:17;;;;;;;2.53;1.63;;;;;;;;;;5026100;28;20048;-79
2024/02/06 04:27:43;;;;;;;3.60;2.22;;;;;;;;;;5033063;28;20049;-79
2024/02/06 04:30:10;;;;;;;3.63;1.88;;;;;;;;;;5025896;28;20021;-80
2024/02/06 04:32:35;;;;;;;3.50;1.60;;;;;;;;;;5024901;28;20128;-82
2024/02/06 04:35:01;;;;;;;3.70;1.77;;;;;;;;;;5032480;28;20116;-81
2024/02/06 04:37:26;;;;;;;2.60;1.55;;;;;;;;;;5023627;28;20490;-80
2024/02/06 04:39:52;;;;;;;1.77;1.15;;;;;;;;;;5026594;28;20021;-82
2024/02/06 04:42:17;;;;;;;3.78;1.80;;;;;;;;;;5030000;28;20033;-81
2024/02/06 04:44:43;;;;;;;2.88;1.38;;;;;;;;;;5026713;28;20498;-82
2024/02/06 04:47:09;;;;;;;3.53;1.77;;;;;;;;;;5026578;28;20040;-83
2024/02/06 04:49:34;;;;;;;4.95;2.20;;;;;;;;;;5023496;28;20398;-83
2024/02/06 04:51:59;;;;;;;4.00;2.35;;;;;;;;;;5022947;28;20036;-79
2024/02/06 04:54:25;;;;;;;5.75;2.53;;;;;;;;;;5039184;28;20048;-80
2024/02/06 04:56:50;;;;;;;5.00;2.75;;;;;;;;;;5027444;28;20060;-80
2024/02/06 04:59:16;;;;;;;3.28;1.42;;;;;;;;;;5016155;28;20048;-80
2024/02/06 05:01:41;;;;;;;2.20;1.27;;;;;;;;;;5021899;28;20521;-79
2024/02/06 05:04:07;;;;;;;7.85;2.67;;;;;;;;;;5029168;28;20037;-78
2024/02/06 05:06:33;;;;;;;3.05;1.20;;;;;;;;;;5030933;28;20131;-79
2024/02/06 05:08:59;;;;;;;3.75;1.98;;;;;;;;;;5021452;28;20040;-81
2024/02/06 05:11:24;;;;;;;5.22;2.35;;;;;;;;;;5025751;28;20095;-81
2024/02/06 05:13:49;;;;;;;4.90;2.15;;;;;;;;;;5025712;28;20068;-79
2024/02/06 05:16:16;;;;;;;2.67;1.27;;;;;;;;;;5036163;28;20557;-82
2024/02/06 05:18:42;;;;;;;3.97;1.40;;;;;;;;;;5021073;28;20121;-80
2024/02/06 05:21:07;;;;;;;5.57;1.70;;;;;;;;;;5021256;28;20457;-80
2024/02/06 05:23:32;;;;;;;2.15;1.40;;;;;;;;;;5024264;28;20043;-78
2024/02/06 05:26:00;;;;;;;6.72;2.30;;;;;;;;;;5026966;28;20087;-81
2024/02/06 05:28:26;;;;;;;3.22;2.15;;;;;;;;;;5025317;28;20029;-81
2024/02/06 05:30:52;;;;;;;4.78;1.98;;;;;;;;;;4983253;28;20045;-80
2024/02/06 05:33:17;;;;;;;2.47;1.20;;;;;;;;;;5019453;28;20064;-79
2024/02/06 05:35:42;;;;;;;4.03;1.73;;;;;;;;;;5023558;28;20520;-78
2024/02/06 05:38:08;;;;;;;6.25;2.42;;;;;;;;;;5028145;28;20029;-79
2024/02/06 05:40:33;;;;;;;2.00;1.10;;;;;;;;;;5030376;28;20069;-80
2024/02/06 05:42:59;;;;;;;5.22;1.85;;;;;;;;;;5025439;28;20782;-79
2024/02/06 05:45:24;;;;;;;4.32;1.65;;;;;;;;;;5036310;28;20144;-78
2024/02/06 05:47:50;;;;;;;5.75;1.88;;;;;;;;;;5014295;28;20502;-79
2024/02/06 05:50:16;;;;;;;4.00;1.83;;;;;;;;;;5029940;28;20041;-80
2024/02/06 05:52:41;;;;;;;5.82;1.83;;;;;;;;;;5009443;28;20048;-80
2024/02/06 05:55:07;;;;;;;3.55;1.52;;;;;;;;;;5034695;28;20037;-78
2024/02/06 05:57:33;;;;;;;3.75;1.10;;;;;;;;;;5027786;28;20622;-79
2024/02/06 05:59:59;;;;;;;3.80;1.17;;;;;;;;;;5017906;28;20541;-78
2024/02/06 06:02:24;;;;;;;4.97;2.80;;;;;;;;;;5015878;28;20049;-81
2024/02/06 06:04:49;;;;;;;6.30;2.35;;;;;;;;;;5026576;28;20260;-78
2024/02/06 06:07:15;;;;;;;6.38;2.50;;;;;;;;;;5021797;28;20049;-78
2024/02/06 06:09:40;;;;;;;7.35;1.90;;;;;;;;;;5024541;28;20037;-78
2024/02/06 06:12:06;;;;;;;5.63;1.77;;;;;;;;;;5028849;28;20036;-80
2024/02/06 06:14:31;;;;;;;7.05;2.42;;;;;;;;;;5034592;28;20119;-77
2024/02/06 06:16:57;;;;;;;5.10;1.48;;;;;;;;;;5032548;28;20044;-78
2024/02/06 06:19:22;;;;;;;4.53;2.08;;;;;;;;;;5022739;28;20041;-78
2024/02/06 06:21:47;;;;;;;9.00;1.85;;;;;;;;;;5034633;28;22335;-78
2024/02/06 06:24:13;;;;;;;6.03;1.75;;;;;;;;;;5033578;28;20045;-77
2024/02/06 06:26:40;;;;;;;5.80;2.10;;;;;;;;;;5032570;28;20091;-78
2024/02/06 06:29:08;;;;;;;6.93;1.75;;;;;;;;;;5032143;28;20053;-77
2024/02/06 06:31:34;;;;;;;3.92;2.15;;;;;;;;;;5029007;28;20630;-79
2024/02/06 06:33:59;;;;;;;3.40;1.40;;;;;;;;;;5033625;28;20040;-78
2024/02/06 06:36:24;;;;;;;5.90;1.92;;;;;;;;;;5018078;28;20044;-78
2024/02/06 06:38:50;;;;;;;4.13;1.63;;;;;;;;;;5042768;28;20060;-78
2024/02/06 06:41:15;;;;;;;4.03;1.73;;;;;;;;;;5041596;28;20040;-79
2024/02/06 06:43:41;;;;;;;6.82;2.00;;;;;;;;;;5040587;28;20111;-79
2024/02/06 06:46:06;;;;;;;2.72;1.17;;;;;;;;;;5053809;28;20048;-79
2024/02/06 06:48:33;;;;;;;4.75;1.35;;;;;;;;;;5047267;28;20559;-78
2024/02/06 06:50:59;;;;;;;4.05;1.45;;;;;;;;;;5029308;28;20033;-79
2024/02/06 06:53:25;;;;;;;4.95;1.30;;;;;;;;;;5018289;28;20041;-79
2024/02/06 06:55:50;;;;;;;4.13;1.70;;;;;;;;;;5045219;28;20805;-79
2024/02/06 06:58:15;;;;;;;4.32;1.70;;;;;;;;;;5046984;28;20065;-79
2024/02/06 07:00:41;;;;;;;4.10;1.70;;;;;;;;;;5047052;28;20048;-79
2024/02/06 07:03:07;;;;;;;3.63;1.60;;;;;;;;;;5041618;28;20068;-77
2024/02/06 07:05:32;;;;;;;4.50;1.83;;;;;;;;;;5042948;28;20037;-79
2024/02/06 07:07:58;;;;;;;3.55;1.52;;;;;;;;;;5027567;28;20076;-79
2024/02/06 07:10:23;;;;;;;3.58;1.92;;;;;;;;;;5041079;28;20061;-78
2024/02/06 07:12:49;;;;;;;4.15;2.03;;;;;;;;;;5039946;28;20040;-79
2024/02/06 07:15:14;;;;;;;4.97;1.70;;;;;;;;;;5037396;28;20033;-79
2024/02/06 07:17:41;;;;;;;4.20;1.45;;;;;;;;;;5042840;28;20108;-78
2024/02/06 07:20:07;;;;;;;4.65;1.90;;;;;;;;;;5036156;28;20037;-78
2024/02/06 07:22:33;;;;;;;4.68;1.15;;;;;;;;;;5031199;28;20045;-78
2024/02/06 07:24:59;;;;;;;1.15;0.95;;;;;;;;;;5027153;28;20123;-78
2024/02/06 07:27:24;;;;;;;2.60;1.42;;;;;;;;;;5038519;28;20220;-79
2024/02/06 07:29:50;;;;;;;5.28;2.05;;;;;;;;;;5046351;28;20052;-78
2024/02/06 07:32:16;;;;;;;3.60;1.60;;;;;;;;;;5038840;28;20098;-79
2024/02/06 07:34:42;;;;;;;5.22;1.75;;;;;;;;;;5051436;28;20040;-78
2024/02/06 07:37:07;;;;;;;4.28;1.63;;;;;;;;;;5048084;28;20041;-78
2024/02/06 07:39:35;;;;;;;3.53;1.55;;;;;;;;;;5047954;28;20043;-79
2024/02/06 07:42:00;;;;;;;2.70;1.13;;;;;;;;;;5013803;28;20061;-78
2024/02/06 07:44:25;;;;;;;1.42;1.10;;;;;;;;;;5037309;28;20044;-78
2024/02/06 07:46:51;;;;;;;3.10;1.25;;;;;;;;;;5037760;28;20041;-78
2024/02/06 07:49:17;;;;;;;4.28;1.30;;;;;;;;;;5036922;28;20049;-78
2024/02/06 07:51:42;;;;;;;8.25;1.67;;;;;;;;;;5041896;28;20064;-78
2024/02/06 07:54:08;;;;;;;3.17;1.42;;;;;;;;;;5027561;28;20029;-79
2024/02/06 07:56:33;;;;;;;2.67;1.20;;;;;;;;;;5024975;28;20049;-78
2024/02/06 07:58:59;;;;;;;3.80;1.60;;;;;;;;;;5025139;28;20677;-78
2024/02/06 08:01:24;;;;;;;5.40;2.38;;;;;;;;;;5053772;28;20043;-78
2024/02/06 08:03:50;;;;;;;5.18;2.20;;;;;;;;;;5055201;28;20056;-78
2024/02/06 08:06:17;;;;;;;9.98;2.22;;;;;;;;;;5042717;28;20043;-78
2024/02/06 08:08:42;;;;;;;4.68;1.52;;;;;;;;;;5040760;28;20163;-78
2024/02/06 08:11:08;;;;;;;3.55;1.30;;;;;;;;;;5040687;28;20041;-79
2024/02/06 08:13:33;;;;;;;3.90;1.63;;;;;;;;;;5028096;28;20072;-78
2024/02/06 08:15:58;;;;;;;2.53;1.50;;;;;;;;;;5036834;28;20049;-78
2024/02/06 08:18:24;;;;;;;3.03;1.30;;;;;;;;;;5036782;28;20081;-79
2024/02/06 08:20:49;;;;;;;4.75;1.38;;;;;;;;;;5038296;28;20041;-78
2024/02/06 08:23:15;;;;;;;3.05;1.75;;;;;;;;;;5032096;28;20029;-79
2024/02/06 08:25:40;;;;;;;3.35;1.50;;;;;;;;;;5044581;28;20060;-78
2024/02/06 08:28:05;;;;;;;2.95;1.65;;;;;;;;;;5043750;28;20051;-79
2024/02/06 08:30:31;;;;;;;3.28;2.00;;;;;;;;;;5040744;28;20052;-78
2024/02/06 08:32:56;;;;;;;3.70;1.40;;;;;;;;;;5046804;28;20044;-78
2024/02/06 08:35:21;;;;;;;1.45;0.63;;;;;;;;;;5048735;28;20128;-78
2024/02/06 08:37:47;;;;;;;5.68;1.90;;;;;;;;;;5049882;28;20037;-78
2024/02/06 08:40:13;;;;;;;5.05;1.52;;;;;;;;;;5048993;28;20033;-78
2024/02/06 08:42:39;;;;;;;5.15;2.25;;;;;;;;;;5045318;28;20090;-78
2024/02/06 08:45:04;;;;;;;6.55;1.65;;;;;;;;;;5052944;28;20045;-79
2024/02/06 08:47:30;;;;;;;3.40;1.20;;;;;;;;;;5026434;28;20041;-78
2024/02/06 08:49:55;;;;;;;4.50;1.67;;;;;;;;;;5047970;28;20043;-78
2024/02/06 08:52:21;;;;;;;3.28;1.40;;;;;;;;;;5043405;28;20475;-78
2024/02/06 08:54:46;;;;;;;4.60;1.48;;;;;;;;;;5048077;28;20037;-78
2024/02/06 08:57:12;;;;;;;3.92;1.38;;;;;;;;;;5046226;28;20121;-78
2024/02/06 08:59:37;;;;;;;3.95;1.30;;;;;;;;;;5035394;28;20038;-78
2024/02/06 09:02:03;;;;;;;1.88;1.35;;;;;;;;;;5045727;28;20040;-78
2024/02/06 09:04:29;;;;;;;3.22;1.38;;;;;;;;;;5043571;28;20047;-79
2024/02/06 09:06:54;;;;;;;3.22;1.20;;;;;;;;;;5029893;28;20104;-78
2024/02/06 09:09:20;;;;;;;3.35;0.98;;;;;;;;;;5044148;28;20045;-78
2024/02/06 09:11:46;;;;;;;2.78;1.13;;;;;;;;;;5043506;28;20139;-78
2024/02/06 09:14:11;;;;;;;4.00;1.65;;;;;;;;;;5028816;28;20083;-78
2024/02/06 09:16:36;;;;;;;1.88;1.23;;;;;;;;;;5032709;28;20041;-78
2024/02/06 09:19:02;;;;;;;2.10;1.33;;;;;;;;;;5041593;28;20116;-78
2024/02/06 09:21:27;;;;;;;4.07;2.05;;;;;;;;;;5038457;28;20037;-78
2024/02/06 09:23:52;;;;;;;2.20;0.95;;;;;;;;;;5040824;28;20052;-77
2024/02/06 09:26:18;;;;;;;3.80;1.92;;;;;;;;;;5046557;28;20032;-78
2024/02/06 09:28:44;;;;;;;3.78;1.80;;;;;;;;;;5059286;28;20055;-78
2024/02/06 09:31:09;;;;;;;2.95;1.55;;;;;;;;;;5036666;28;20871;-78
2024/02/06 09:33:35;;;;;;;4.88;2.10;;;;;;;;;;5040924;28;20111;-78
2024/02/06 09:36:02;;;;;;;4.22;1.63;;;;;;;;;;5050691;28;20128;-79
2024/02/06 09:38:31;;;;;;;3.35;1.35;;;;;;;;;;5052630;28;20046;-78
2024/02/06 09:40:57;;;;;;;3.97;1.33;;;;;;;;;;5043789;28;20033;-78
2024/02/06 09:43:23;;;;;;;3.15;1.30;;;;;;;;;;5045248;28;20124;-78
2024/02/06 09:45:49;;;;;;;1.75;1.23;;;;;;;;;;5028342;28;20140;-78
2024/02/06 09:48:15;;;;;;;2.58;1.30;;;;;;;;;;5036352;28;20041;-78
2024/02/06 09:50:40;;;;;;;2.33;0.57;;;;;;;;;;5035940;28;20069;-79
2024/02/06 09:53:08;;;;;;;3.90;1.42;;;;;;;;;;5032642;28;20156;-78
2024/02/06 09:55:35;;;;;;;4.35;1.63;;;;;;;;;;5036242;28;20033;-79
2024/02/06 09:58:03;;;;;;;2.95;1.73;;;;;;;;;;5006425;28;20433;-78
2024/02/06 10:00:29;;;;;;;3.80;1.80;;;;;;;;;;5046133;28;20142;-78
2024/02/06 10:02:59;;;;;;;2.45;1.58;;;;;;;;;;5041251;28;20060;-78
2024/02/06 10:05:32;;;;;;;4.38;1.42;;;;;;;;;;5050535;28;20048;-78
2024/02/06 10:07:59;;;;;;;2.95;2.05;;;;;;;;;;5034756;28;20513;-78
2024/02/06 10:10:25;;;;;;;3.55;1.63;;;;;;;;;;5047709;28;20041;-78
2024/02/06 10:12:51;;;;;;;2.92;1.35;;;;;;;;;;5047900;28;20096;-78
2024/02/06 10:15:18;;;;;;;4.28;1.70;;;;;;;;;;5050177;28;20094;-79
2024/02/06 10:17:43;;;;;;;6.22;1.80;;;;;;;;;;5047609;28;20124;-78
2024/02/06 10:20:10;;;;;;;2.00;1.38;;;;;;;;;;5042167;28;20060;-78
2024/02/06 10:22:37;;;;;;;2.03;1.02;;;;;;;;;;5027881;28;20033;-78
2024/02/06 10:25:03;;;;;;;4.10;1.63;;;;;;;;;;5029446;28;20029;-77
2024/02/06 10:27:33;;;;;;;3.58;1.40;;;;;;;;;;5018076;28;20080;-79
2024/02/06 10:30:00;;;;;;;5.75;1.75;;;;;;;;;;5010613;28;20480;-81
2024/02/06 10:32:34;;;;;;;7.25;1.92;;;;;;;;;;5029770;28;20064;-79
2024/02/06 10:35:07;;;;;;;2.30;1.08;;;;;;;;;;5006742;28;20044;-80
2024/02/06 10:37:35;;;;;;;5.00;1.70;;;;;;;;;;5005642;28;20084;-78
2024/02/06 10:40:05;;;;;;;4.13;1.30;;;;;;;;;;5038706;28;20037;-78
2024/02/06 10:42:30;;;;;;;3.20;1.65;;;;;;;;;;5033255;28;20095;-78
2024/02/06 10:44:56;;;;;;;4.90;1.38;;;;;;;;;;5038546;28;20048;-78
2024/02/06 10:47:22;;;;;;;5.35;1.80;;;;;;;;;;5036532;28;20045;-80
2024/02/06 10:49:58;;;;;;;3.47;1.73;;;;;;;;;;5029676;28;20061;-80
2024/02/06 10:52:24;;;;;;;6.38;1.88;;;;;;;;;;5024780;28;20104;-80
2024/02/06 10:54:49;;;;;;;3.05;1.45;;;;;;;;;;5027992;28;20037;-81
2024/02/06 10:57:18;;;;;;;4.80;1.92;;;;;;;;;;5010943;28;20492;-80
2024/02/06 11:00:11;;;;;;;1.83;1.10;;;;;;;;;;5007522;28;20041;-79
2024/02/06 11:02:40;;;;;;;2.67;1.40;;;;;;;;;;5032068;28;20041;-80
2024/02/06 11:05:33;;;;;;;3.42;1.42;;;;;;;;;;5024859;28;20033;-79
2024/02/06 11:08:05;;;;;;;1.83;0.88;;;;;;;;;;5036828;28;20059;-79
2024/02/06 11:10:43;;;;;;;6.35;2.70;;;;;;;;;;5036385;28;20045;-79
2024/02/06 11:13:35;;;;;;;3.33;1.52;;;;;;;;;;5036214;28;20414;-79
2024/02/06 11:16:03;;;;;;;5.80;2.65;;;;;;;;;;5019776;28;20697;-79
2024/02/06 11:18:55;;;;;;;3.38;1.40;;;;;;;;;;5036084;28;20033;-79
2024/02/06 11:21:23;;;;;;;6.47;2.03;;;;;;;;;;5013242;28;20045;-79
2024/02/06 11:23:54;;;;;;;2.95;1.20;;;;;;;;;;5018448;28;20493;-79
2024/02/06 11:26:19;;;;;;;6.70;2.55;;;;;;;;;;5027431;28;20072;-80
2024/02/06 11:29:06;;;;;;;2.80;1.50;;;;;;;;;;4989094;28;20585;-80
2024/02/06 11:31:37;;;;;;;4.68;1.60;;;;;;;;;;5016938;28;20051;-79
2024/02/06 11:34:17;;;;;;;;;;;;;;;;;;5014189;28;20049;-79
2024/02/06 11:36:43;;;;;;;2.70;1.05;;;;;;;;;;5032849;28;20760;-78
2024/02/06 11:39:10;;;;;;;2.45;1.50;;;;;;;;;;5016195;28;20045;-78
2024/02/06 11:41:35;;;;;;;2.33;1.08;;;;;;;;;;5016356;28;20095;-78
2024/02/06 11:44:27;;;;;;;3.28;1.40;;;;;;;;;;5035699;28;20033;-79
2024/02/06 11:46:55;;;;;;;2.03;1.20;;;;;;;;;;5036017;28;20037;-78
2024/02/06 11:49:25;;;;;;;2.50;1.20;;;;;;;;;;5039066;28;20037;-79
2024/02/06 11:51:54;;;;;;;5.07;1.27;;;;;;;;;;5037689;28;20083;-78
2024/02/06 11:54:21;;;;;;;1.98;0.85;;;;;;;;;;4999862;28;20053;-78
2024/02/06 11:56:47;;;;;;;3.03;1.52;;;;;;;;;;5037857;28;20036;-78
2024/02/06 11:59:13;;;;;;;2.03;1.40;;;;;;;;;;5044730;28;20049;-78
2024/02/06 12:01:39;;;;;;;3.00;1.35;;;;;;;;;;5026362;28;20057;-78
2024/02/06 12:04:05;;;;;;;1.40;0.80;;;;;;;;;;5039741;28;20056;-78
2024/02/06 12:06:32;;;;;;;1.83;1.40;;;;;;;;;;5045702;28;20044;-78
2024/02/06 12:09:10;;;;;;;1.63;1.00;;;;;;;;;;5023956;28;20045;-78
2024/02/06 12:11:40;;;;;;;3.33;1.10;;;;;;;;;;5038621;28;20056;-78
2024/02/06 12:14:06;;;;;;;2.72;0.98;;;;;;;;;;5026853;28;20044;-78
2024/02/06 12:16:31;;;;;;;2.08;1.15;;;;;;;;;;5015036;28;20049;-78
2024/02/06 12:18:58;;;;;;;1.50;0.88;;;;;;;;;;5040866;28;20044;-78
2024/02/06 12:21:24;;;;;;;1.33;1.13;;;;;;;;;;5040799;28;20094;-78
2024/02/06 12:24:04;;;;;;;3.13;1.00;;;;;;;;;;5037310;28;20013;-78
2024/02/06 12:26:30;;;;;;;2.13;1.00;;;;;;;;;;5026448;28;20044;-78
2024/02/06 12:29:02;;;;;;;2.60;1.02;;;;;;;;;;5034504;28;20052;-78
2024/02/06 12:31:29;;;;;;;3.63;1.52;;;;;;;;;;5024187;28;20038;-76
2024/02/06 12:33:54;;;;;;;1.83;1.40;;;;;;;;;;5028965;28;20052;-77
2024/02/06 12:36:20;;;;;;;1.60;1.10;;;;;;;;;;5032885;28;20037;-80
2024/02/06 12:38:51;;;;;;;2.83;1.00;;;;;;;;;;5021078;28;20036;-78
2024/02/06 12:41:16;;;;;;;2.67;0.88;;;;;;;;;;5032325;28;20045;-78
2024/02/06 12:43:42;;;;;;;2.28;1.15;;;;;;;;;;5031802;28;20036;-78
2024/02/06 12:46:08;;;;;;;1.20;0.85;;;;;;;;;;5037214;28;20669;-78
2024/02/06 12:48:34;;;;;;;0.77;0.77;;;;;;;;;;5032211;28;20052;-78
2024/02/06 12:51:00;;;;;;;0.55;0.55;;;;;;;;;;5035618;28;20059;-78
2024/02/06 12:53:26;;;;;;;2.92;1.02;;;;;;;;;;5025988;28;20528;-78
2024/02/06 12:55:52;;;;;;;1.42;1.30;;;;;;;;;;5036159;28;20048;-78
2024/02/06 12:58:28;;;;;;;3.00;1.10;;;;;;;;;;5037461;28;20037;-80
2024/02/06 13:00:59;;;;;;;1.90;0.93;;;;;;;;;;5016760;28;20034;-79
2024/02/06 13:03:25;;;;;;;1.70;1.00;;;;;;;;;;5038013;28;20078;-78
2024/02/06 13:05:57;;;;;;;2.65;1.48;;;;;;;;;;5028515;28;20049;-78
2024/02/06 13:08:24;;;;;;;4.25;1.30;;;;;;;;;;5009539;28;20037;-78
2024/02/06 13:10:50;;;;;;;2.10;0.82;;;;;;;;;;5031437;28;20097;-78
2024/02/06 13:13:20;;;;;;;2.08;1.25;;;;;;;;;;5025111;28;20087;-79
2024/02/06 13:15:45;;;;;;;2.70;1.25;;;;;;;;;;5033953;28;20052;-78
2024/02/06 13:18:19;;;;;;;1.73;0.80;;;;;;;;;;5031183;28;20048;-80
2024/02/06 13:20:46;;;;;;;3.58;1.10;;;;;;;;;;5016579;28;20048;-79
2024/02/06 13:23:21;;;;;;;0.93;0.70;;;;;;;;;;5024606;28;20332;-78
2024/02/06 13:25:49;;;;;;;1.55;1.45;;;;;;;;;;5031272;28;20047;-79
2024/02/06 13:28:17;;;;;;;1.13;0.80;;;;;;;;;;5014312;28;20043;-80
2024/02/06 13:30:43;;;;;;;2.13;1.23;;;;;;;;;;5026018;28;20037;-78
2024/02/06 13:33:11;;;;;;;0.90;0.68;;;;;;;;;;5029022;28;20558;-79
2024/02/06 13:35:36;;;;;;;3.50;0.95;;;;;;;;;;5032729;28;20045;-79
2024/02/06 13:38:03;;;;;;;2.03;1.38;;;;;;;;;;5018372;28;20025;-77
2024/02/06 13:40:29;;;;;;;5.30;1.20;;;;;;;;;;5035752;28;20037;-79
2024/02/06 13:42:54;;;;;;;2.70;1.35;;;;;;;;;;5032387;28;20056;-77
2024/02/06 13:45:20;;;;;;;2.17;1.25;;;;;;;;;;5045117;28;20106;-77
2024/02/06 13:47:45;;;;;;;2.75;1.30;;;;;;;;;;5042951;28;20060;-78
2024/02/06 13:50:10;;;;;;;1.63;0.80;;;;;;;;;;5014546;28;20124;-77
2024/02/06 13:52:36;;;;;;;0.93;0.80;;;;;;;;;;5031901;28;20043;-79
2024/02/06 13:55:02;;;;;;;4.47;1.50;;;;;;;;;;5022550;28;20072;-78
2024/02/06 13:57:28;;;;;;;1.38;1.10;;;;;;;;;;5037557;28;20579;-78
2024/02/06 13:59:53;;;;;;;1.13;1.00;;;;;;;;;;5041484;28;20045;-79
2024/02/06 14:02:19;;;;;;;4.30;1.40;;;;;;;;;;5015036;28;20060;-79
2024/02/06 14:04:44;;;;;;;1.33;0.88;;;;;;;;;;5041889;28;20037;-78
2024/02/06 14:07:16;;;;;;;2.88;1.38;;;;;;;;;;5016537;28;20045;-76
2024/02/06 14:09:41;;;;;;;1.50;1.20;;;;;;;;;;5015023;28;20029;-78
2024/02/06 14:12:07;;;;;;;4.55;1.60;;;;;;;;;;5012525;28;20056;-77
2024/02/06 14:14:32;;;;;;;3.10;1.50;;;;;;;;;;5029364;28;20056;-78
2024/02/06 14:16:58;;;;;;;2.50;1.20;;;;;;;;;;5027403;28;20047;-78
2024/02/06 14:19:24;;;;;;;3.47;1.85;;;;;;;;;;5031496;28;20044;-78
2024/02/06 14:21:49;;;;;;;2.33;1.60;;;;;;;;;;5034484;28;20033;-77
2024/02/06 14:24:14;;;;;;;15.40;5.85;;;;;;;;;;5032358;28;20131;-78
2024/02/06 14:26:40;;;;;;;4.30;2.40;;;;;;;;;;5023829;28;20045;-77
2024/02/06 14:29:06;;;;;;;3.80;1.75;;;;;;;;;;5032373;28;20098;-78
2024/02/06 14:31:35;;;;;;;6.18;3.05;;;;;;;;;;5010018;28;20115;-76
2024/02/06 14:34:00;;;;;;;3.67;1.90;;;;;;;;;;5031267;28;20537;-78
2024/02/06 14:36:26;;;;;;;4.00;1.27;;;;;;;;;;5037706;28;20059;-76
2024/02/06 14:38:52;;;;;;;3.15;1.48;;;;;;;;;;5022776;28;20500;-78